Time;durP1;ratioP1;P1;durP2;ratioP2;P2;SDS_P1;SDS_P2;PMS_P1;PMS_P2;Temp;Humidity;BMP_temperature;BMP_pressure;BME280_temperature;BME280_humidity;BME280_pressure;Samples;Min_cycle;Max_cycle;Signal;HPM_P1;HPM_P2
2021/01/22 00:01:50;;;;;;;1.27;0.60;;;9.20;99.90;;;;;;4943181;29;20189;-80
2021/01/22 00:04:16;;;;;;;1.83;0.60;;;9.20;99.90;;;;;;4943796;29;20212;-80
2021/01/22 00:06:43;;;;;;;0.83;0.60;;;9.20;99.90;;;;;;4942887;29;20233;-80
2021/01/22 00:09:09;;;;;;;2.60;0.83;;;9.20;99.90;;;;;;4943646;29;20208;-80
2021/01/22 00:11:34;;;;;;;1.90;0.80;;;9.20;99.90;;;;;;4942889;29;20629;-80
2021/01/22 00:14:00;;;;;;;1.73;0.70;;;9.40;99.90;;;;;;4943398;29;20234;-80
2021/01/22 00:16:26;;;;;;;1.73;0.77;;;9.50;99.90;;;;;;4942615;29;20201;-78
2021/01/22 00:18:51;;;;;;;2.60;0.80;;;9.50;99.90;;;;;;4943027;29;20188;-80
2021/01/22 00:21:17;;;;;;;1.23;0.70;;;9.50;99.90;;;;;;4942920;29;20188;-80
2021/01/22 00:23:42;;;;;;;2.47;0.93;;;9.50;99.90;;;;;;4958979;28;20183;-79
2021/01/22 00:26:08;;;;;;;1.77;0.73;;;9.60;99.90;;;;;;4941942;29;20217;-80
2021/01/22 00:28:34;;;;;;;2.33;0.80;;;9.60;99.90;;;;;;4958940;29;20166;-80
2021/01/22 00:30:59;;;;;;;0.97;0.57;;;9.60;99.90;;;;;;4958211;29;20675;-80
2021/01/22 00:33:25;;;;;;;1.00;0.60;;;9.60;99.90;;;;;;4942680;29;20272;-80
2021/01/22 00:35:51;;;;;;;2.30;0.80;;;9.70;99.90;;;;;;4958120;28;20233;-80
2021/01/22 00:38:16;;;;;;;3.60;0.80;;;9.70;99.90;;;;;;4958418;29;20193;-80
2021/01/22 00:40:42;;;;;;;1.00;0.70;;;9.70;99.90;;;;;;4942590;29;20212;-80
2021/01/22 00:43:08;;;;;;;2.33;0.80;;;9.60;99.90;;;;;;4942553;29;20178;-81
2021/01/22 00:45:33;;;;;;;1.40;0.80;;;9.60;99.90;;;;;;4942911;29;20197;-81
2021/01/22 00:47:59;;;;;;;3.07;0.80;;;9.60;99.90;;;;;;4942208;29;20208;-80
2021/01/22 00:50:24;;;;;;;2.53;0.80;;;9.60;99.90;;;;;;4942265;29;20558;-80
2021/01/22 00:52:51;;;;;;;1.37;0.60;;;9.50;99.90;;;;;;4942524;29;20185;-80
2021/01/22 00:55:17;;;;;;;1.10;0.80;;;9.50;99.90;;;;;;4958854;28;20187;-79
2021/01/22 00:57:43;;;;;;;1.70;0.80;;;9.50;99.90;;;;;;4943307;29;20241;-80
2021/01/22 01:00:09;;;;;;;1.60;0.60;;;9.40;99.90;;;;;;4942811;29;20312;-79
2021/01/22 01:02:35;;;;;;;4.83;0.80;;;9.30;99.90;;;;;;4942785;29;20474;-79
2021/01/22 01:05:00;;;;;;;2.90;0.80;;;9.20;99.90;;;;;;4957981;29;20276;-79
2021/01/22 01:07:26;;;;;;;0.80;0.70;;;9.10;99.90;;;;;;4942469;29;20264;-80
2021/01/22 01:09:51;;;;;;;1.93;0.87;;;9.00;99.90;;;;;;4957972;28;20699;-79
2021/01/22 01:12:17;;;;;;;1.27;0.70;;;9.00;99.90;;;;;;4943423;29;20206;-79
2021/01/22 01:14:42;;;;;;;1.73;1.00;;;8.90;99.90;;;;;;4942324;29;20652;-79
2021/01/22 01:17:08;;;;;;;1.70;0.73;;;8.90;99.90;;;;;;4958552;28;20206;-79
2021/01/22 01:19:34;;;;;;;3.40;1.00;;;8.90;99.90;;;;;;4942779;29;20209;-79
2021/01/22 01:21:59;;;;;;;1.90;0.80;;;8.90;99.90;;;;;;4941672;29;20330;-77
2021/01/22 01:24:25;;;;;;;1.63;0.83;;;8.90;99.90;;;;;;4958367;29;20205;-79
2021/01/22 01:26:50;;;;;;;1.40;0.80;;;8.90;99.90;;;;;;4958671;29;20209;-80
2021/01/22 01:29:16;;;;;;;3.63;0.70;;;8.80;99.90;;;;;;4974522;28;20187;-79
2021/01/22 01:31:41;;;;;;;1.90;0.73;;;8.90;99.90;;;;;;4958158;29;20616;-79
2021/01/22 01:34:07;;;;;;;2.37;0.80;;;8.90;99.90;;;;;;4942234;29;20188;-79
2021/01/22 01:36:32;;;;;;;1.60;0.80;;;8.90;99.90;;;;;;4957608;28;20284;-80
2021/01/22 01:38:58;;;;;;;2.53;0.87;;;8.80;99.90;;;;;;4958117;29;20189;-79
2021/01/22 01:41:24;;;;;;;3.00;0.80;;;8.90;99.90;;;;;;4941867;29;20185;-79
2021/01/22 01:43:49;;;;;;;2.40;0.87;;;8.80;99.90;;;;;;4941622;29;20193;-80
2021/01/22 01:46:15;;;;;;;0.93;0.80;;;8.90;99.90;;;;;;4957387;29;20200;-79
2021/01/22 01:48:41;;;;;;;3.80;0.90;;;9.00;99.90;;;;;;4942173;29;20645;-79
2021/01/22 01:51:06;;;;;;;3.07;1.10;;;9.00;99.90;;;;;;4941219;29;20546;-79
2021/01/22 01:53:32;;;;;;;3.03;0.90;;;9.00;99.90;;;;;;4941555;29;20175;-79
2021/01/22 01:55:57;;;;;;;2.97;1.20;;;9.00;99.90;;;;;;4941749;29;20708;-81
2021/01/22 01:58:25;;;;;;;4.70;1.13;;;8.90;99.90;;;;;;4941606;29;20186;-79
2021/01/22 02:00:50;;;;;;;3.00;0.90;;;8.90;99.90;;;;;;4942318;29;20185;-79
2021/01/22 02:03:16;;;;;;;2.60;1.00;;;8.90;99.90;;;;;;4942177;29;20243;-79
2021/01/22 02:05:42;;;;;;;3.67;1.10;;;8.90;99.90;;;;;;4941223;28;20221;-80
2021/01/22 02:08:07;;;;;;;2.97;1.10;;;8.90;99.90;;;;;;4957272;29;20173;-80
2021/01/22 02:10:33;;;;;;;4.03;1.23;;;8.90;99.90;;;;;;4941929;29;20216;-79
2021/01/22 02:12:58;;;;;;;3.33;1.20;;;8.90;99.90;;;;;;4942673;29;20184;-79
2021/01/22 02:15:24;;;;;;;6.83;1.53;;;8.90;99.90;;;;;;4944349;29;20186;-79
2021/01/22 02:17:50;;;;;;;3.43;1.23;;;8.90;99.90;;;;;;4943670;29;20711;-79
2021/01/22 02:20:27;;;;;;;2.97;0.90;;;8.90;99.90;;;;;;4959811;29;20178;-79
2021/01/22 02:22:54;;;;;;;6.23;1.40;;;8.90;99.90;;;;;;4958124;29;20564;-80
2021/01/22 02:25:22;;;;;;;4.03;1.00;;;8.80;99.90;;;;;;4941229;29;20252;-79
2021/01/22 02:27:48;;;;;;;5.73;1.30;;;8.90;99.90;;;;;;4940768;29;20209;-79
2021/01/22 02:30:14;;;;;;;0.70;0.50;;;9.00;99.90;;;;;;4941855;29;20182;-79
2021/01/22 02:32:39;;;;;;;1.93;0.70;;;8.40;99.90;;;;;;4941485;29;20187;-80
2021/01/22 02:35:09;;;;;;;0.40;0.40;;;7.90;99.90;;;;;;4957423;29;20199;-78
2021/01/22 02:37:35;;;;;;;1.70;0.50;;;7.50;99.90;;;;;;4956912;28;20213;-79
2021/01/22 02:40:01;;;;;;;2.50;0.50;;;7.30;99.90;;;;;;4941112;29;20222;-79
2021/01/22 02:42:26;;;;;;;1.87;0.60;;;7.10;99.90;;;;;;4942015;29;20267;-79
2021/01/22 02:44:55;;;;;;;0.50;0.50;;;6.90;99.90;;;;;;4940797;29;20204;-79
2021/01/22 02:47:21;;;;;;;0.40;0.40;;;6.70;99.90;;;;;;4957210;29;20225;-79
2021/01/22 02:49:46;;;;;;;1.00;0.57;;;6.50;99.90;;;;;;4941256;29;20676;-79
2021/01/22 02:52:12;;;;;;;0.40;0.40;;;6.30;99.90;;;;;;4956736;29;20256;-79
2021/01/22 02:54:37;;;;;;;0.60;0.60;;;6.20;99.90;;;;;;4956504;29;20178;-79
2021/01/22 02:57:29;;;;;;;1.27;0.73;;;6.00;99.90;;;;;;4940601;29;20212;-78
2021/01/22 03:00:23;;;;;;;0.87;0.70;;;6.00;99.90;;;;;;4956942;29;20208;-78
2021/01/22 03:03:09;;;;;;;0.63;0.63;;;5.80;99.90;;;;;;4941503;29;20189;-78
2021/01/22 03:05:35;;;;;;;0.77;0.60;;;5.60;99.90;;;;;;4947922;29;20249;-78
2021/01/22 03:08:08;;;;;;;1.10;0.60;;;5.50;99.90;;;;;;4941812;29;20616;-79
2021/01/22 03:10:34;;;;;;;0.60;0.60;;;5.40;99.90;;;;;;4957666;29;20185;-78
2021/01/22 03:13:00;;;;;;;0.60;0.60;;;5.30;99.90;;;;;;4974620;28;20205;-78
2021/01/22 03:15:26;;;;;;;0.73;0.60;;;5.20;99.90;;;;;;4959715;29;20193;-78
2021/01/22 03:18:12;;;;;;;0.90;0.60;;;5.10;99.90;;;;;;4957969;28;20201;-78
2021/01/22 03:20:38;;;;;;;0.47;0.47;;;5.00;99.90;;;;;;4945064;29;20232;-78
2021/01/22 03:23:04;;;;;;;0.80;0.50;;;5.00;99.90;;;;;;4977533;28;20178;-78
2021/01/22 03:25:30;;;;;;;0.50;0.50;;;4.90;99.90;;;;;;4962765;29;20189;-78
2021/01/22 03:27:55;;;;;;;1.27;0.60;;;4.90;99.90;;;;;;4961794;29;20213;-78
2021/01/22 03:30:21;;;;;;;1.80;0.60;;;4.80;99.90;;;;;;4962247;29;20175;-78
2021/01/22 03:32:47;;;;;;;0.83;0.80;;;4.80;99.90;;;;;;4945710;29;20181;-78
2021/01/22 03:35:13;;;;;;;1.10;0.90;;;4.80;99.90;;;;;;4946608;29;20252;-77
2021/01/22 03:37:38;;;;;;;0.90;0.90;;;4.80;99.90;;;;;;4977595;28;20205;-78
2021/01/22 03:40:04;;;;;;;0.70;0.70;;;4.80;99.90;;;;;;4945697;29;20273;-78
2021/01/22 03:42:30;;;;;;;2.50;0.80;;;4.80;99.90;;;;;;4962349;28;20216;-77
2021/01/22 03:44:55;;;;;;;0.87;0.87;;;4.80;99.90;;;;;;4961460;28;20216;-78
2021/01/22 03:47:21;;;;;;;2.37;1.03;;;4.70;99.90;;;;;;4960958;28;20201;-78
2021/01/22 03:49:46;;;;;;;1.10;1.00;;;4.70;99.90;;;;;;4944922;29;20192;-78
2021/01/22 03:52:12;;;;;;;1.30;0.90;;;4.70;99.90;;;;;;4961002;29;20178;-77
2021/01/22 03:54:38;;;;;;;1.53;1.10;;;4.70;99.90;;;;;;4961182;29;20241;-78
2021/01/22 03:57:03;;;;;;;1.40;1.20;;;4.60;99.90;;;;;;4944632;29;20205;-78
2021/01/22 03:59:29;;;;;;;1.23;1.10;;;4.60;99.90;;;;;;4945126;29;20280;-78
2021/01/22 04:01:54;;;;;;;1.93;1.20;;;4.60;99.90;;;;;;4945545;29;20286;-78
2021/01/22 04:04:20;;;;;;;1.27;1.17;;;4.60;99.90;;;;;;4961731;28;20273;-79
2021/01/22 04:06:45;;;;;;;1.93;1.60;;;4.60;99.90;;;;;;4976679;28;20228;-78
2021/01/22 04:09:11;;;;;;;3.07;1.60;;;4.60;99.90;;;;;;4960392;29;20177;-77
2021/01/22 04:11:36;;;;;;;2.03;1.70;;;4.60;99.90;;;;;;4959858;28;20173;-78
2021/01/22 04:14:02;;;;;;;1.90;1.70;;;4.60;99.90;;;;;;4944532;29;20350;-78
2021/01/22 04:16:27;;;;;;;1.90;1.70;;;4.60;99.90;;;;;;4943710;29;20229;-78
2021/01/22 04:18:53;;;;;;;2.40;1.80;;;4.60;99.90;;;;;;4943611;29;20232;-78
2021/01/22 04:21:19;;;;;;;2.57;2.10;;;4.50;99.90;;;;;;4959495;29;20185;-78
2021/01/22 04:23:44;;;;;;;1.90;1.70;;;4.60;99.90;;;;;;4943534;29;20196;-79
2021/01/22 04:26:10;;;;;;;2.33;2.10;;;4.60;99.90;;;;;;4959314;29;20683;-78
2021/01/22 04:28:35;;;;;;;2.37;2.17;;;4.50;99.90;;;;;;4942334;29;20704;-78
2021/01/22 04:31:01;;;;;;;3.63;2.40;;;4.50;99.90;;;;;;4940817;29;20726;-79
2021/01/22 04:33:26;;;;;;;2.97;2.37;;;4.50;99.90;;;;;;4957281;28;20663;-78
2021/01/22 04:35:52;;;;;;;3.03;2.60;;;4.50;99.90;;;;;;4940609;29;20212;-79
2021/01/22 04:38:17;;;;;;;3.93;2.90;;;4.50;99.90;;;;;;4940791;29;20260;-78
2021/01/22 04:40:43;;;;;;;4.37;2.70;;;4.50;99.90;;;;;;4938969;29;20212;-78
2021/01/22 04:43:09;;;;;;;3.33;2.77;;;4.60;99.90;;;;;;4939076;29;20565;-78
2021/01/22 04:45:34;;;;;;;3.97;3.20;;;4.60;99.90;;;;;;4954831;28;20240;-79
2021/01/22 04:48:00;;;;;;;4.63;3.27;;;4.60;99.90;;;;;;4971019;28;20194;-79
2021/01/22 04:50:25;;;;;;;3.70;3.40;;;4.60;99.90;;;;;;4954723;28;20177;-79
2021/01/22 04:52:51;;;;;;;4.00;3.40;;;4.50;99.90;;;;;;4954745;28;20550;-79
2021/01/22 04:55:16;;;;;;;4.60;4.13;;;4.50;99.90;;;;;;4938881;29;20181;-79
2021/01/22 04:57:44;;;;;;;4.80;4.03;;;4.50;99.90;;;;;;4954423;29;20247;-79
2021/01/22 05:00:10;;;;;;;5.03;4.17;;;4.50;99.90;;;;;;4938884;29;20185;-79
2021/01/22 05:02:36;;;;;;;5.37;4.60;;;4.50;99.90;;;;;;4938530;29;20273;-79
2021/01/22 05:05:03;;;;;;;5.50;4.83;;;4.50;99.90;;;;;;4954488;28;20305;-79
2021/01/22 05:07:29;;;;;;;7.03;5.23;;;4.40;99.90;;;;;;4954165;29;20205;-78
2021/01/22 05:09:55;;;;;;;6.40;5.47;;;4.40;99.90;;;;;;4938499;29;20232;-78
2021/01/22 05:12:20;;;;;;;6.47;5.43;;;4.40;99.90;;;;;;4954357;29;20182;-78
2021/01/22 05:14:46;;;;;;;7.73;5.20;;;4.40;99.90;;;;;;4938448;29;20207;-78
2021/01/22 05:17:12;;;;;;;6.87;5.77;;;4.40;99.90;;;;;;4938097;29;20256;-78
2021/01/22 05:19:39;;;;;;;7.63;6.10;;;4.40;99.90;;;;;;4937962;29;20652;-78
2021/01/22 05:22:05;;;;;;;10.40;6.20;;;4.40;99.90;;;;;;4954266;29;20268;-78
2021/01/22 05:24:34;;;;;;;7.77;5.83;;;4.40;99.90;;;;;;4954077;29;20256;-78
2021/01/22 05:27:04;;;;;;;6.90;6.13;;;4.40;99.90;;;;;;4938207;29;20268;-78
2021/01/22 05:29:31;;;;;;;8.60;6.50;;;4.40;99.90;;;;;;4938099;29;20272;-79
2021/01/22 05:31:56;;;;;;;8.77;6.97;;;4.40;99.90;;;;;;4937968;29;20213;-79
2021/01/22 05:34:22;;;;;;;10.47;6.77;;;4.40;99.90;;;;;;4937957;29;20230;-79
2021/01/22 05:36:48;;;;;;;10.87;7.13;;;4.30;99.90;;;;;;4953744;28;20624;-79
2021/01/22 05:39:18;;;;;;;10.33;7.83;;;4.30;99.90;;;;;;4937731;29;20185;-79
2021/01/22 05:41:54;;;;;;;11.00;7.70;;;4.40;99.90;;;;;;4952515;28;20209;-78
2021/01/22 05:44:24;;;;;;;8.80;7.70;;;4.40;99.90;;;;;;4969336;28;20252;-79
2021/01/22 05:47:06;;;;;;;11.13;8.03;;;4.40;99.90;;;;;;4952565;28;20221;-78
2021/01/22 05:49:31;;;;;;;11.37;8.10;;;4.30;99.90;;;;;;4937705;29;20557;-78
2021/01/22 05:51:57;;;;;;;11.67;8.17;;;4.30;99.90;;;;;;4937348;29;20727;-79
2021/01/22 05:54:32;;;;;;;11.00;8.10;;;4.30;99.90;;;;;;4937477;29;20268;-80
2021/01/22 05:56:58;;;;;;;12.87;9.30;;;4.20;99.90;;;;;;4953068;29;20260;-80
2021/01/22 05:59:23;;;;;;;12.83;9.60;;;4.20;99.90;;;;;;4937505;29;20196;-79
2021/01/22 06:01:49;;;;;;;12.87;9.90;;;4.30;99.90;;;;;;4953411;28;20532;-80
2021/01/22 06:04:15;;;;;;;13.90;10.33;;;4.20;99.90;;;;;;4937898;29;20568;-80
2021/01/22 06:06:40;;;;;;;14.77;9.83;;;4.30;99.90;;;;;;4947245;29;20268;-81
2021/01/22 06:09:13;;;;;;;15.07;10.77;;;4.40;99.90;;;;;;4961676;29;20224;-80
2021/01/22 06:11:42;;;;;;;12.73;9.67;;;4.40;99.90;;;;;;4966524;29;20173;-81
2021/01/22 06:14:07;;;;;;;14.37;10.40;;;4.40;99.90;;;;;;4975760;28;20186;-80
2021/01/22 06:16:34;;;;;;;14.13;9.73;;;4.40;99.90;;;;;;4937839;29;20206;-80
2021/01/22 06:19:04;;;;;;;11.53;9.27;;;4.40;99.90;;;;;;4960887;29;20273;-80
2021/01/22 06:21:39;;;;;;;13.83;11.20;;;4.40;99.90;;;;;;4944408;29;20257;-81
2021/01/22 06:24:06;;;;;;;13.53;9.70;;;4.40;99.90;;;;;;4942057;29;20209;-81
2021/01/22 06:26:33;;;;;;;15.93;10.43;;;4.50;99.90;;;;;;4938774;29;20639;-78
2021/01/22 06:29:06;;;;;;;16.47;10.80;;;4.40;99.90;;;;;;4954355;28;20215;-78
2021/01/22 06:31:32;;;;;;;16.33;10.80;;;4.50;99.90;;;;;;4954309;29;20532;-77
2021/01/22 06:33:58;;;;;;;17.60;11.50;;;4.40;99.90;;;;;;4953642;29;20265;-78
2021/01/22 06:36:24;;;;;;;14.57;10.93;;;4.50;99.90;;;;;;4953459;28;20233;-77
2021/01/22 06:38:50;;;;;;;15.27;11.27;;;4.50;99.90;;;;;;4954431;29;20284;-76
2021/01/22 06:41:25;;;;;;;18.10;12.57;;;4.50;99.90;;;;;;4954857;28;20182;-81
2021/01/22 06:43:51;;;;;;;18.23;12.43;;;4.50;99.90;;;;;;4943523;29;20181;-80
2021/01/22 06:46:18;;;;;;;15.73;12.93;;;4.50;99.90;;;;;;4952544;29;20642;-79
2021/01/22 06:49:05;;;;;;;18.33;14.03;;;4.50;99.90;;;;;;4948779;29;20212;-80
2021/01/22 06:51:33;;;;;;;17.40;13.80;;;4.60;99.90;;;;;;4937048;29;20175;-78
2021/01/22 06:54:09;;;;;;;20.13;14.93;;;4.60;99.90;;;;;;4936101;29;20173;-80
2021/01/22 06:56:56;;;;;;;21.27;14.90;;;4.60;99.90;;;;;;4952617;29;20201;-80
2021/01/22 06:59:30;;;;;;;18.50;14.87;;;4.70;99.90;;;;;;4943869;29;20271;-80
2021/01/22 07:01:59;;;;;;;19.83;15.53;;;4.80;99.90;;;;;;4947284;29;20169;-78
2021/01/22 07:04:30;;;;;;;22.37;15.13;;;4.80;99.90;;;;;;4952972;29;20209;-80
2021/01/22 07:06:57;;;;;;;19.90;15.03;;;4.70;99.90;;;;;;4950280;29;20193;-81
2021/01/22 07:09:47;;;;;;;19.67;14.50;;;4.70;99.90;;;;;;4953301;29;20518;-79
2021/01/22 07:12:13;;;;;;;20.77;15.10;;;4.60;99.90;;;;;;4967895;28;20177;-80
2021/01/22 07:14:46;;;;;;;20.77;15.33;;;4.60;99.90;;;;;;4938025;29;20186;-78
2021/01/22 07:17:20;;;;;;;20.93;15.97;;;4.60;99.90;;;;;;4936383;29;20208;-79
2021/01/22 07:20:02;;;;;;;20.90;15.93;;;4.60;99.90;;;;;;4952360;28;20244;-78
2021/01/22 07:22:28;;;;;;;24.10;16.30;;;4.70;99.90;;;;;;4966637;28;20180;-79
2021/01/22 07:24:58;;;;;;;22.03;16.80;;;4.70;99.90;;;;;;4951781;29;20763;-79
2021/01/22 07:27:44;;;;;;;23.90;16.30;;;4.70;99.90;;;;;;4933355;29;20685;-79
2021/01/22 07:30:13;;;;;;;21.70;16.17;;;4.80;99.90;;;;;;4950551;29;20617;-79
2021/01/22 07:32:40;;;;;;;23.33;17.57;;;4.80;99.90;;;;;;4949049;28;20182;-79
2021/01/22 07:35:22;;;;;;;21.93;16.13;;;4.70;99.90;;;;;;4917305;29;20193;-79
2021/01/22 07:37:48;;;;;;;20.30;16.50;;;4.70;99.90;;;;;;4935165;29;20542;-79
2021/01/22 07:40:13;;;;;;;22.57;16.20;;;4.70;99.90;;;;;;4917257;29;20190;-79
2021/01/22 07:42:39;;;;;;;22.73;16.47;;;4.80;99.90;;;;;;4933221;29;20601;-79
2021/01/22 07:45:07;;;;;;;25.33;16.87;;;4.80;99.90;;;;;;4920115;29;20243;-79
2021/01/22 07:47:34;;;;;;;23.70;16.90;;;4.70;99.90;;;;;;4935286;29;20244;-79
2021/01/22 07:49:59;;;;;;;24.23;15.83;;;4.80;99.90;;;;;;4952693;29;20649;-79
2021/01/22 07:52:25;;;;;;;26.30;16.87;;;4.80;99.90;;;;;;4952066;29;20189;-78
2021/01/22 07:54:51;;;;;;;22.27;16.47;;;4.80;99.90;;;;;;4936630;29;20181;-76
2021/01/22 07:57:18;;;;;;;25.57;18.23;;;4.80;99.90;;;;;;4935979;29;20208;-77
2021/01/22 07:59:44;;;;;;;24.33;17.53;;;4.90;99.90;;;;;;4950028;29;20559;-78
2021/01/22 08:02:23;;;;;;;23.60;15.40;;;4.90;99.90;;;;;;4937974;29;20180;-80
2021/01/22 08:04:56;;;;;;;22.93;15.40;;;4.90;99.90;;;;;;4954726;28;20198;-79
2021/01/22 08:07:38;;;;;;;25.57;16.33;;;4.80;99.90;;;;;;4941287;29;20672;-79
2021/01/22 08:10:08;;;;;;;23.63;16.27;;;4.90;99.90;;;;;;4957462;29;20177;-79
2021/01/22 08:12:34;;;;;;;24.67;16.63;;;4.80;99.90;;;;;;4940900;29;20669;-79
2021/01/22 08:15:13;;;;;;;23.23;16.13;;;4.80;99.90;;;;;;4956419;29;20653;-79
2021/01/22 08:17:38;;;;;;;24.50;16.87;;;4.90;99.90;;;;;;4941331;29;20232;-79
2021/01/22 08:20:07;;;;;;;23.00;17.03;;;4.80;99.90;;;;;;4941941;29;20184;-78
2021/01/22 08:22:33;;;;;;;23.90;15.67;;;4.90;99.90;;;;;;4957559;29;20239;-79
2021/01/22 08:24:58;;;;;;;25.13;16.50;;;4.90;99.90;;;;;;4941008;29;20205;-79
2021/01/22 08:27:24;;;;;;;23.87;17.40;;;5.00;99.90;;;;;;4940611;29;20237;-79
2021/01/22 08:29:49;;;;;;;26.53;17.40;;;5.00;99.90;;;;;;4956362;29;20180;-79
2021/01/22 08:32:16;;;;;;;30.70;16.83;;;4.90;99.90;;;;;;4942120;29;20294;-79
2021/01/22 08:34:42;;;;;;;24.90;17.37;;;4.90;99.90;;;;;;4958015;29;20174;-78
2021/01/22 08:37:08;;;;;;;25.03;17.13;;;4.90;99.90;;;;;;4960688;29;20220;-80
2021/01/22 08:39:58;;;;;;;24.10;17.40;;;5.00;99.90;;;;;;4941439;29;20194;-79
2021/01/22 08:42:24;;;;;;;22.57;16.67;;;5.10;99.90;;;;;;4956156;29;20186;-79
2021/01/22 08:44:51;;;;;;;23.60;16.83;;;5.10;99.90;;;;;;4955430;29;20204;-76
2021/01/22 08:47:17;;;;;;;22.37;16.60;;;5.20;99.90;;;;;;4955253;29;20194;-77
2021/01/22 08:49:54;;;;;;;23.37;16.17;;;5.20;99.90;;;;;;4955444;29;20177;-77
2021/01/22 08:52:20;;;;;;;25.10;16.10;;;5.30;99.90;;;;;;4956940;29;20161;-81
2021/01/22 08:54:45;;;;;;;26.60;16.63;;;5.40;99.90;;;;;;4941560;29;20580;-77
2021/01/22 08:57:11;;;;;;;27.83;16.90;;;5.40;99.90;;;;;;4939779;29;20213;-79
2021/01/22 08:59:49;;;;;;;22.43;15.93;;;5.30;99.90;;;;;;4971247;28;20182;-80
2021/01/22 09:02:15;;;;;;;25.63;15.27;;;5.30;99.90;;;;;;4939294;29;20260;-79
2021/01/22 09:04:40;;;;;;;23.27;16.43;;;5.30;99.90;;;;;;4955581;29;20630;-78
2021/01/22 09:07:15;;;;;;;22.13;16.03;;;5.30;99.90;;;;;;4955347;28;20198;-80
2021/01/22 09:09:48;;;;;;;19.87;14.93;;;5.40;99.90;;;;;;4939041;29;20177;-80
2021/01/22 09:12:16;;;;;;;21.97;15.63;;;5.40;99.90;;;;;;4939013;29;20183;-79
2021/01/22 09:14:56;;;;;;;23.23;14.60;;;5.40;99.90;;;;;;4955667;29;20882;-79
2021/01/22 09:17:40;;;;;;;22.20;15.43;;;5.50;99.90;;;;;;4936152;29;20266;-79
2021/01/22 09:20:13;;;;;;;22.63;14.70;;;5.50;99.90;;;;;;4939239;29;20181;-80
2021/01/22 09:22:38;;;;;;;20.27;15.17;;;5.60;99.90;;;;;;4946017;28;20561;-80
2021/01/22 09:25:05;;;;;;;20.23;14.63;;;5.60;99.90;;;;;;4936857;29;20194;-80
2021/01/22 09:27:33;;;;;;;20.63;14.03;;;5.70;99.90;;;;;;4935157;29;20766;-78
2021/01/22 09:29:59;;;;;;;19.37;13.47;;;5.70;99.90;;;;;;4935320;29;20317;-79
2021/01/22 09:32:24;;;;;;;19.37;13.23;;;5.60;99.90;;;;;;4935076;29;20257;-79
2021/01/22 09:34:50;;;;;;;20.40;13.63;;;5.70;99.90;;;;;;4919308;29;20593;-80
2021/01/22 09:37:15;;;;;;;19.33;13.80;;;5.70;99.90;;;;;;4933358;29;20624;-80
2021/01/22 09:39:41;;;;;;;20.43;13.00;;;5.80;99.90;;;;;;4954359;29;20257;-80
2021/01/22 09:42:07;;;;;;;23.27;13.20;;;5.90;99.90;;;;;;4954604;29;20178;-80
2021/01/22 09:44:32;;;;;;;19.17;13.30;;;5.90;99.90;;;;;;4939263;29;20256;-80
2021/01/22 09:46:58;;;;;;;21.17;12.40;;;6.00;99.90;;;;;;4938086;29;20255;-77
2021/01/22 09:49:24;;;;;;;16.00;11.20;;;6.00;99.90;;;;;;4937924;29;20535;-78
2021/01/22 09:51:49;;;;;;;18.60;11.83;;;6.00;99.90;;;;;;4953905;28;20186;-77
2021/01/22 09:54:15;;;;;;;23.33;12.17;;;6.10;99.90;;;;;;4938742;29;20218;-76
2021/01/22 09:56:40;;;;;;;18.23;11.67;;;6.20;99.90;;;;;;4969057;28;20276;-76
2021/01/22 09:59:07;;;;;;;17.67;12.43;;;6.20;99.90;;;;;;4937822;29;20182;-76
2021/01/22 10:01:33;;;;;;;15.47;11.47;;;6.10;99.90;;;;;;4936244;29;20180;-76
2021/01/22 10:03:59;;;;;;;15.47;10.87;;;6.00;99.90;;;;;;4937508;29;20189;-76
2021/01/22 10:06:25;;;;;;;18.43;10.80;;;6.00;99.90;;;;;;4937383;29;20576;-76
2021/01/22 10:08:50;;;;;;;17.83;10.17;;;5.90;99.90;;;;;;4969893;28;20180;-76
2021/01/22 10:11:16;;;;;;;17.50;11.43;;;5.90;99.90;;;;;;4953335;29;20244;-76
2021/01/22 10:13:41;;;;;;;15.23;11.70;;;5.80;99.90;;;;;;4953401;29;20169;-77
2021/01/22 10:16:07;;;;;;;17.17;11.33;;;5.80;99.90;;;;;;4953439;28;20205;-77
2021/01/22 10:18:32;;;;;;;17.03;10.90;;;5.90;99.90;;;;;;4953995;28;20574;-76
2021/01/22 10:20:58;;;;;;;13.30;10.80;;;6.00;99.90;;;;;;4969205;28;20191;-76
2021/01/22 10:23:23;;;;;;;17.33;10.37;;;6.00;99.90;;;;;;4968932;28;20177;-77
2021/01/22 10:25:49;;;;;;;16.13;10.30;;;6.00;99.90;;;;;;4969022;28;20232;-76
2021/01/22 10:28:14;;;;;;;12.73;9.03;;;6.10;99.90;;;;;;4937244;29;20181;-77
2021/01/22 10:30:40;;;;;;;14.93;9.77;;;6.10;99.90;;;;;;4953314;28;20178;-77
2021/01/22 10:33:06;;;;;;;12.83;9.90;;;6.20;99.90;;;;;;4953472;29;20181;-77
2021/01/22 10:35:31;;;;;;;12.20;8.73;;;6.10;99.90;;;;;;4937775;29;20185;-77
2021/01/22 10:37:57;;;;;;;11.87;8.10;;;6.20;99.90;;;;;;4969011;28;20197;-77
2021/01/22 10:40:22;;;;;;;8.73;7.23;;;6.20;99.90;;;;;;4937286;29;20536;-77
2021/01/22 10:42:48;;;;;;;13.10;7.03;;;6.20;99.90;;;;;;4953199;29;20676;-77
2021/01/22 10:45:13;;;;;;;9.53;7.00;;;6.30;99.90;;;;;;4953232;28;20213;-76
2021/01/22 10:47:39;;;;;;;10.43;6.37;;;6.30;99.90;;;;;;4952686;29;20252;-76
2021/01/22 10:50:05;;;;;;;9.17;5.97;;;6.20;99.90;;;;;;4952992;29;20182;-76
2021/01/22 10:52:35;;;;;;;11.53;7.00;;;6.20;99.90;;;;;;4952525;29;20174;-76
2021/01/22 10:55:00;;;;;;;11.00;7.47;;;6.30;99.90;;;;;;4936610;29;20186;-76
2021/01/22 10:57:26;;;;;;;11.87;8.10;;;6.40;99.90;;;;;;4952628;28;20201;-77
2021/01/22 10:59:51;;;;;;;10.57;7.33;;;6.50;99.90;;;;;;4952590;29;20272;-77
2021/01/22 11:02:17;;;;;;;11.30;7.63;;;6.50;99.90;;;;;;4953309;28;20264;-78
2021/01/22 11:04:42;;;;;;;8.47;6.23;;;6.40;99.90;;;;;;4938165;29;20201;-77
2021/01/22 11:07:08;;;;;;;12.33;6.23;;;6.50;99.90;;;;;;4952632;28;20201;-77
2021/01/22 11:09:34;;;;;;;11.80;6.90;;;6.50;99.90;;;;;;4952161;29;20178;-77
2021/01/22 11:12:04;;;;;;;8.47;5.77;;;6.50;99.90;;;;;;4952610;29;20174;-81
2021/01/22 11:14:29;;;;;;;9.40;5.27;;;6.40;99.90;;;;;;4939022;29;20255;-80
2021/01/22 11:16:55;;;;;;;9.37;5.70;;;6.40;99.90;;;;;;4954501;29;20655;-81
2021/01/22 11:19:20;;;;;;;8.17;5.20;;;6.40;99.90;;;;;;4954908;29;20181;-79
2021/01/22 11:21:46;;;;;;;7.30;4.23;;;6.50;99.90;;;;;;4955917;29;20177;-82
2021/01/22 11:24:11;;;;;;;7.17;4.80;;;6.60;99.90;;;;;;4939330;29;20551;-80
2021/01/22 11:26:37;;;;;;;7.60;5.43;;;6.70;99.90;;;;;;4929567;29;20282;-82
2021/01/22 11:29:02;;;;;;;7.40;4.13;;;6.80;99.90;;;;;;4954659;29;20188;-83
2021/01/22 11:31:28;;;;;;;5.13;4.20;;;6.90;99.90;;;;;;4956558;29;20709;-84
2021/01/22 11:33:54;;;;;;;8.33;4.10;;;6.70;99.90;;;;;;4941897;29;20676;-85
2021/01/22 11:36:21;;;;;;;5.87;4.37;;;6.70;99.90;;;;;;4940705;29;20197;-82
2021/01/22 11:38:47;;;;;;;8.77;4.80;;;6.70;99.90;;;;;;4939941;29;20204;-84
2021/01/22 11:41:13;;;;;;;8.17;4.20;;;6.70;99.90;;;;;;4959007;29;20629;-83
2021/01/22 11:43:39;;;;;;;7.87;4.03;;;6.80;99.90;;;;;;4944628;29;20186;-81
2021/01/22 11:46:05;;;;;;;8.60;4.80;;;7.00;99.90;;;;;;4943025;29;20217;-82
2021/01/22 11:48:30;;;;;;;7.63;4.40;;;6.80;99.90;;;;;;4941039;29;20182;-81
2021/01/22 11:50:56;;;;;;;8.63;4.40;;;6.80;99.90;;;;;;4959050;28;20190;-81
2021/01/22 11:53:22;;;;;;;6.53;4.47;;;6.70;99.90;;;;;;4941385;29;20213;-81
2021/01/22 11:55:47;;;;;;;7.30;4.97;;;6.60;99.90;;;;;;4941537;29;20189;-82
2021/01/22 11:58:13;;;;;;;6.87;4.77;;;6.70;99.90;;;;;;4942719;29;20623;-83
2021/01/22 12:00:38;;;;;;;6.43;4.43;;;6.80;99.90;;;;;;4943521;29;20187;-83
2021/01/22 12:03:07;;;;;;;7.10;4.20;;;6.90;99.90;;;;;;4943515;29;20200;-85
2021/01/22 12:05:32;;;;;;;7.87;3.97;;;6.90;99.90;;;;;;4963131;29;20232;-82
2021/01/22 12:07:58;;;;;;;7.47;4.20;;;6.80;99.90;;;;;;4950542;29;20669;-82
2021/01/22 12:10:23;;;;;;;6.30;4.33;;;6.80;99.90;;;;;;4945050;29;20240;-81
2021/01/22 12:12:49;;;;;;;8.37;4.57;;;6.70;99.90;;;;;;4943727;29;20183;-81
2021/01/22 12:15:15;;;;;;;6.83;4.23;;;6.60;99.90;;;;;;4943876;29;20657;-84
2021/01/22 12:17:40;;;;;;;8.43;5.00;;;6.70;99.90;;;;;;4946327;29;20206;-80
2021/01/22 12:20:06;;;;;;;6.40;4.40;;;6.70;99.90;;;;;;4947861;29;20370;-81
2021/01/22 12:22:32;;;;;;;8.03;4.60;;;6.70;99.90;;;;;;4946221;29;20210;-80
2021/01/22 12:24:57;;;;;;;8.67;4.13;;;6.80;99.90;;;;;;4944853;29;20205;-81
2021/01/22 12:27:23;;;;;;;6.43;4.53;;;6.70;99.90;;;;;;4945330;29;20224;-80
2021/01/22 12:29:48;;;;;;;9.37;4.47;;;6.70;99.90;;;;;;4958314;29;20177;-77
2021/01/22 12:32:14;;;;;;;8.07;4.50;;;6.70;99.90;;;;;;4956258;29;20185;-77
2021/01/22 12:34:39;;;;;;;9.60;4.53;;;6.70;99.90;;;;;;4972141;28;20182;-78
2021/01/22 12:37:05;;;;;;;6.70;4.37;;;6.80;99.90;;;;;;4956835;29;20657;-83
2021/01/22 12:39:30;;;;;;;8.47;4.30;;;6.80;99.90;;;;;;4941359;29;20281;-78
2021/01/22 12:41:56;;;;;;;7.47;4.27;;;6.70;99.90;;;;;;4942361;29;20184;-79
2021/01/22 12:44:22;;;;;;;7.37;4.90;;;6.60;99.90;;;;;;4944355;29;20208;-79
2021/01/22 12:46:47;;;;;;;9.30;4.10;;;6.60;99.90;;;;;;4942303;29;20201;-80
2021/01/22 12:49:14;;;;;;;8.10;4.43;;;6.60;99.90;;;;;;4943505;29;20538;-79
2021/01/22 12:51:39;;;;;;;8.63;4.40;;;6.60;99.90;;;;;;4942509;29;20681;-80